sensor_id;sensor_type;location;lat;lon;timestamp;temperature;humidity
5828;DHT22;42583;50.240;8.444;2023-05-07T00:02:28;14.90;85.80
5828;DHT22;42583;50.240;8.444;2023-05-07T00:17:30;14.90;85.00
5828;DHT22;42583;50.240;8.444;2023-05-07T00:32:30;15.10;84.00
5828;DHT22;42583;50.240;8.444;2023-05-07T00:47:31;15.00;83.50
5828;DHT22;42583;50.240;8.444;2023-05-07T01:02:31;14.90;82.00
5828;DHT22;42583;50.240;8.444;2023-05-07T01:17:36;14.90;81.40
5828;DHT22;42583;50.240;8.444;2023-05-07T01:32:42;14.90;80.70
5828;DHT22;42583;50.240;8.444;2023-05-07T01:47:43;15.00;79.60
5828;DHT22;42583;50.240;8.444;2023-05-07T02:02:44;15.10;78.90
5828;DHT22;42583;50.240;8.444;2023-05-07T02:18:05;15.10;78.00
5828;DHT22;42583;50.240;8.444;2023-05-07T02:33:09;15.10;78.10
5828;DHT22;42583;50.240;8.444;2023-05-07T02:48:12;15.20;76.80
5828;DHT22;42583;50.240;8.444;2023-05-07T03:03:14;15.30;76.10
5828;DHT22;42583;50.240;8.444;2023-05-07T03:18:15;15.30;76.70
5828;DHT22;42583;50.240;8.444;2023-05-07T03:33:16;15.30;77.00
5828;DHT22;42583;50.240;8.444;2023-05-07T03:48:16;15.30;77.00
5828;DHT22;42583;50.240;8.444;2023-05-07T04:03:17;15.20;77.20
5828;DHT22;42583;50.240;8.444;2023-05-07T04:18:18;15.10;77.80
5828;DHT22;42583;50.240;8.444;2023-05-07T04:33:18;15.00;78.20
5828;DHT22;42583;50.240;8.444;2023-05-07T04:48:19;14.90;78.70
5828;DHT22;42583;50.240;8.444;2023-05-07T05:03:20;15.00;78.20
5828;DHT22;42583;50.240;8.444;2023-05-07T05:18:22;15.10;78.40
5828;DHT22;42583;50.240;8.444;2023-05-07T05:33:23;15.20;78.60
5828;DHT22;42583;50.240;8.444;2023-05-07T05:48:26;15.30;78.30
5828;DHT22;42583;50.240;8.444;2023-05-07T06:03:26;15.50;77.30
5828;DHT22;42583;50.240;8.444;2023-05-07T06:18:27;15.70;75.60
5828;DHT22;42583;50.240;8.444;2023-05-07T06:33:27;15.70;74.60
5828;DHT22;42583;50.240;8.444;2023-05-07T06:48:28;15.90;74.80
5828;DHT22;42583;50.240;8.444;2023-05-07T07:03:28;16.30;74.50
5828;DHT22;42583;50.240;8.444;2023-05-07T07:18:29;17.20;73.70
5828;DHT22;42583;50.240;8.444;2023-05-07T07:33:29;17.80;71.10
5828;DHT22;42583;50.240;8.444;2023-05-07T07:48:31;18.10;70.50
5828;DHT22;42583;50.240;8.444;2023-05-07T08:03:31;18.40;69.90
5828;DHT22;42583;50.240;8.444;2023-05-07T08:18:32;18.70;67.70
5828;DHT22;42583;50.240;8.444;2023-05-07T08:33:33;18.40;66.60
5828;DHT22;42583;50.240;8.444;2023-05-07T08:48:33;18.40;67.00
5828;DHT22;42583;50.240;8.444;2023-05-07T09:03:34;18.60;66.30
5828;DHT22;42583;50.240;8.444;2023-05-07T09:18:39;19.10;64.90
5828;DHT22;42583;50.240;8.444;2023-05-07T09:33:40;19.30;62.90
5828;DHT22;42583;50.240;8.444;2023-05-07T09:48:43;19.70;62.70
5828;DHT22;42583;50.240;8.444;2023-05-07T10:03:44;20.70;60.20
5828;DHT22;42583;50.240;8.444;2023-05-07T10:18:46;21.80;58.80
5828;DHT22;42583;50.240;8.444;2023-05-07T10:33:48;22.70;56.70
5828;DHT22;42583;50.240;8.444;2023-05-07T11:04:15;23.20;55.00
5828;DHT22;42583;50.240;8.444;2023-05-07T11:19:16;22.80;51.10
5828;DHT22;42583;50.240;8.444;2023-05-07T11:34:24;22.40;53.30
5828;DHT22;42583;50.240;8.444;2023-05-07T11:49:25;22.20;54.00
5828;DHT22;42583;50.240;8.444;2023-05-07T12:04:30;22.50;54.20
5828;DHT22;42583;50.240;8.444;2023-05-07T12:19:30;22.80;54.00
5828;DHT22;42583;50.240;8.444;2023-05-07T12:34:31;22.60;53.10
5828;DHT22;42583;50.240;8.444;2023-05-07T12:49:34;22.60;52.90
5828;DHT22;42583;50.240;8.444;2023-05-07T13:04:38;22.80;52.90
5828;DHT22;42583;50.240;8.444;2023-05-07T13:19:38;22.80;52.40
5828;DHT22;42583;50.240;8.444;2023-05-07T13:34:39;22.10;52.60
5828;DHT22;42583;50.240;8.444;2023-05-07T13:49:40;21.60;53.50
5828;DHT22;42583;50.240;8.444;2023-05-07T14:04:40;21.30;53.80
5828;DHT22;42583;50.240;8.444;2023-05-07T14:19:48;21.50;54.60
5828;DHT22;42583;50.240;8.444;2023-05-07T14:34:48;22.10;54.80
5828;DHT22;42583;50.240;8.444;2023-05-07T14:49:49;23.20;53.80
5828;DHT22;42583;50.240;8.444;2023-05-07T15:04:50;23.90;51.50
5828;DHT22;42583;50.240;8.444;2023-05-07T15:19:50;23.50;51.40
5828;DHT22;42583;50.240;8.444;2023-05-07T15:34:51;22.80;52.00
5828;DHT22;42583;50.240;8.444;2023-05-07T15:49:51;22.50;52.50
5828;DHT22;42583;50.240;8.444;2023-05-07T16:04:52;22.10;52.50
5828;DHT22;42583;50.240;8.444;2023-05-07T16:19:53;21.30;52.60
5828;DHT22;42583;50.240;8.444;2023-05-07T16:34:53;20.70;52.50
5828;DHT22;42583;50.240;8.444;2023-05-07T16:49:54;20.40;53.20
5828;DHT22;42583;50.240;8.444;2023-05-07T17:04:54;20.10;53.70
5828;DHT22;42583;50.240;8.444;2023-05-07T17:19:55;19.90;54.30
5828;DHT22;42583;50.240;8.444;2023-05-07T17:34:56;19.60;55.10
5828;DHT22;42583;50.240;8.444;2023-05-07T17:49:56;18.90;61.30
5828;DHT22;42583;50.240;8.444;2023-05-07T18:04:57;17.10;75.40
5828;DHT22;42583;50.240;8.444;2023-05-07T18:19:58;16.30;90.50
5828;DHT22;42583;50.240;8.444;2023-05-07T18:34:58;15.80;98.60
5828;DHT22;42583;50.240;8.444;2023-05-07T18:49:59;15.40;99.90
5828;DHT22;42583;50.240;8.444;2023-05-07T19:05:00;15.20;99.90
5828;DHT22;42583;50.240;8.444;2023-05-07T19:20:01;15.00;99.90
5828;DHT22;42583;50.240;8.444;2023-05-07T19:35:01;14.90;99.90
5828;DHT22;42583;50.240;8.444;2023-05-07T19:50:02;14.90;99.90
5828;DHT22;42583;50.240;8.444;2023-05-07T20:05:02;15.00;99.90
5828;DHT22;42583;50.240;8.444;2023-05-07T20:20:03;15.00;99.90
5828;DHT22;42583;50.240;8.444;2023-05-07T20:35:04;15.20;99.90
5828;DHT22;42583;50.240;8.444;2023-05-07T20:50:06;15.30;99.90
5828;DHT22;42583;50.240;8.444;2023-05-07T21:05:07;15.40;99.90
5828;DHT22;42583;50.240;8.444;2023-05-07T21:20:08;15.40;99.90
5828;DHT22;42583;50.240;8.444;2023-05-07T21:35:08;15.40;99.90
5828;DHT22;42583;50.240;8.444;2023-05-07T21:50:09;15.20;99.90
5828;DHT22;42583;50.240;8.444;2023-05-07T22:05:10;15.10;99.90
5828;DHT22;42583;50.240;8.444;2023-05-07T22:20:10;14.80;99.90
5828;DHT22;42583;50.240;8.444;2023-05-07T22:35:11;14.70;99.90
5828;DHT22;42583;50.240;8.444;2023-05-07T22:50:12;14.60;99.90
5828;DHT22;42583;50.240;8.444;2023-05-07T23:05:12;14.40;99.90
5828;DHT22;42583;50.240;8.444;2023-05-07T23:20:13;14.20;99.90
5828;DHT22;42583;50.240;8.444;2023-05-07T23:35:14;14.00;99.90
5828;DHT22;42583;50.240;8.444;2023-05-07T23:50:15;13.80;99.90
